createdAt,value
2019-03-12T00:01:14.254Z,88.98
2019-03-12T00:04:20.111Z,88.94
2019-03-12T00:07:25.674Z,88.86
2019-03-12T00:10:30.579Z,88.83
2019-03-12T00:13:35.596Z,88.79
2019-03-12T00:16:40.251Z,88.70
2019-03-12T00:19:44.848Z,88.75
2019-03-12T00:22:51.150Z,88.79
2019-03-12T00:25:55.493Z,88.72
2019-03-12T00:28:59.932Z,88.52
2019-03-12T00:32:06.232Z,88.38
2019-03-12T00:35:12.644Z,88.28
2019-03-12T00:38:17.232Z,88.07
2019-03-12T00:41:21.997Z,87.92
2019-03-12T00:44:26.534Z,87.84
2019-03-12T00:47:31.018Z,87.99
2019-03-12T00:50:35.509Z,88.21
2019-03-12T00:53:39.930Z,88.38
2019-03-12T00:56:44.646Z,88.51
2019-03-12T00:59:49.018Z,88.58
2019-03-12T01:02:53.510Z,88.58
2019-03-12T01:05:58.059Z,88.78
2019-03-12T01:09:02.727Z,88.98
2019-03-12T01:12:07.285Z,89.22
2019-03-12T01:15:12.770Z,89.33
2019-03-12T01:18:17.178Z,89.63
2019-03-12T01:21:21.559Z,89.64
2019-03-12T01:24:25.931Z,89.76
2019-03-12T01:27:32.340Z,89.92
2019-03-12T01:30:36.724Z,90.12
2019-03-12T01:33:41.603Z,90.22
2019-03-12T01:36:46.051Z,90.05
2019-03-12T01:39:50.564Z,89.93
2019-03-12T01:42:55.118Z,90.01
2019-03-12T01:45:59.495Z,90.19
2019-03-12T01:49:03.915Z,90.43
2019-03-12T01:52:08.356Z,90.62
2019-03-12T01:55:12.783Z,90.84
2019-03-12T01:58:18.813Z,91.03
2019-03-12T02:01:23.360Z,91.18
2019-03-12T02:04:32.599Z,91.32
2019-03-12T02:07:37.063Z,91.39
2019-03-12T02:10:41.487Z,91.38
2019-03-12T02:13:45.928Z,91.42
2019-03-12T02:16:50.466Z,91.44
2019-03-12T02:19:54.914Z,91.41
2019-03-12T02:22:59.317Z,91.64
2019-03-12T02:26:03.930Z,91.83
2019-03-12T02:29:08.595Z,92.04
2019-03-12T02:32:13.044Z,92.27
2019-03-12T02:35:17.594Z,92.61
2019-03-12T02:38:22.354Z,92.72
2019-03-12T02:41:28.235Z,92.83
2019-03-12T02:44:32.798Z,92.76
2019-03-12T02:47:37.603Z,93.05
2019-03-12T02:50:48.006Z,93.27
2019-03-12T02:53:52.344Z,93.38
2019-03-12T02:56:56.893Z,93.52
2019-03-12T03:00:01.624Z,93.68
2019-03-12T03:03:06.023Z,93.87
2019-03-12T03:06:25.163Z,94.02
2019-03-12T03:09:29.510Z,94.11
2019-03-12T03:12:34.093Z,94.23
2019-03-12T03:15:42.826Z,94.33
2019-03-12T03:18:47.309Z,94.64
2019-03-12T03:21:51.878Z,94.81
2019-03-12T03:25:02.278Z,94.90
2019-03-12T03:28:06.805Z,94.84
2019-03-12T03:31:14.456Z,94.88
2019-03-12T03:34:18.862Z,94.93
2019-03-12T03:37:23.350Z,94.96
2019-03-12T03:40:27.882Z,95.05
2019-03-12T03:43:32.628Z,95.15
2019-03-12T03:46:36.998Z,95.12
2019-03-12T03:49:41.348Z,95.16
2019-03-12T03:52:54.933Z,95.21
2019-03-12T03:55:59.332Z,95.37
2019-03-12T03:59:03.962Z,95.42
2019-03-12T04:02:11.085Z,95.55
2019-03-12T04:05:18.421Z,95.58
2019-03-12T04:08:23.317Z,95.67
2019-03-12T04:11:27.719Z,95.86
2019-03-12T04:14:32.115Z,95.92
2019-03-12T04:17:36.629Z,95.94
2019-03-12T04:20:41.188Z,95.97
2019-03-12T04:23:45.697Z,96.11
2019-03-12T04:26:52.215Z,96.12
2019-03-12T04:29:56.556Z,96.14
2019-03-12T04:33:01.279Z,96.11
2019-03-12T04:36:05.892Z,96.09
2019-03-12T04:39:10.517Z,96.21
2019-03-12T04:42:15.013Z,96.23
2019-03-12T04:45:19.771Z,96.23
2019-03-12T04:48:24.202Z,96.27
2019-03-12T04:51:28.819Z,96.25
2019-03-12T04:54:33.299Z,96.20
2019-03-12T04:57:37.781Z,96.21
2019-03-12T05:00:42.345Z,96.18
2019-03-12T05:03:46.823Z,96.10
2019-03-12T05:06:53.089Z,96.04
2019-03-12T05:10:15.627Z,95.98
2019-03-12T05:13:19.989Z,95.86
2019-03-12T05:16:24.699Z,95.88
2019-03-12T05:19:29.888Z,95.92
2019-03-12T05:22:34.457Z,95.92
2019-03-12T05:25:39.071Z,95.93
2019-03-12T05:28:47.798Z,95.98
2019-03-12T05:31:52.542Z,95.96
2019-03-12T05:34:59.648Z,96.02
2019-03-12T05:38:08.331Z,95.97
2019-03-12T05:41:15.550Z,95.94
2019-03-12T05:44:25.982Z,95.94
2019-03-12T05:47:30.480Z,96.05
2019-03-12T05:50:35.055Z,96.13
2019-03-12T05:53:47.752Z,96.23
2019-03-12T05:56:57.996Z,96.29
2019-03-12T06:00:02.426Z,96.33
2019-03-12T06:03:07.066Z,96.28
2019-03-12T06:06:11.606Z,96.19
2019-03-12T06:09:16.081Z,96.14
2019-03-12T06:12:20.539Z,95.98
2019-03-12T06:15:24.814Z,96.04
2019-03-12T06:18:29.182Z,96.10
2019-03-12T06:21:33.710Z,96.08
2019-03-12T06:24:38.002Z,96.07
2019-03-12T06:27:42.497Z,95.99
2019-03-12T06:31:15.060Z,95.96
2019-03-12T06:34:41.458Z,95.93
2019-03-12T06:38:10.706Z,96.07
2019-03-12T06:41:33.116Z,95.91
2019-03-12T06:44:59.262Z,95.80
2019-03-12T06:48:21.769Z,95.82
2019-03-12T06:52:03.404Z,95.65
2019-03-12T06:55:27.003Z,95.44
2019-03-12T06:58:53.210Z,95.26
2019-03-12T07:02:13.213Z,94.96
2019-03-12T07:05:35.153Z,94.87
2019-03-12T07:08:52.126Z,94.71
2019-03-12T07:12:00.333Z,94.58
2019-03-12T07:15:27.216Z,94.64
2019-03-12T07:18:59.667Z,94.65
2019-03-12T07:22:31.953Z,94.59
2019-03-12T07:26:01.369Z,94.71
2019-03-12T07:29:23.602Z,94.46
2019-03-12T07:32:45.599Z,94.17
2019-03-12T07:36:04.766Z,93.73
2019-03-12T07:39:28.370Z,93.28
2019-03-12T07:42:37.841Z,92.84
2019-03-12T07:46:13.572Z,92.58
2019-03-12T07:49:30.265Z,92.60
2019-03-12T07:52:56.601Z,92.97
2019-03-12T07:56:13.310Z,92.96
2019-03-12T07:59:48.962Z,92.83
2019-03-12T08:03:11.004Z,92.53
2019-03-12T08:06:46.628Z,92.22
2019-03-12T08:10:01.771Z,92.01
2019-03-12T08:13:30.946Z,91.54
2019-03-12T08:16:53.568Z,90.93
2019-03-12T08:20:23.286Z,90.06
2019-03-12T08:23:36.349Z,89.30
2019-03-12T08:26:52.378Z,88.20
2019-03-12T08:30:18.034Z,87.64
2019-03-12T08:33:35.280Z,87.13
2019-03-12T08:36:51.408Z,86.82
2019-03-12T08:40:17.759Z,85.84
2019-03-12T08:43:41.958Z,85.43
2019-03-12T08:47:13.376Z,84.77
2019-03-12T08:50:44.004Z,84.51
2019-03-12T08:54:25.745Z,83.48
2019-03-12T08:57:53.633Z,84.66
2019-03-12T09:01:09.385Z,84.44
2019-03-12T09:04:36.529Z,84.90
2019-03-12T09:08:06.456Z,84.66
2019-03-12T09:11:38.454Z,84.78
2019-03-12T09:15:20.282Z,84.53
2019-03-12T09:18:43.589Z,84.32
2019-03-12T09:22:06.897Z,84.36
2019-03-12T09:25:27.219Z,84.40
2019-03-12T09:28:40.790Z,83.67
2019-03-12T09:31:56.701Z,83.48
2019-03-12T09:35:08.410Z,83.97
2019-03-12T09:38:40.224Z,84.76
2019-03-12T09:42:00.709Z,85.39
2019-03-12T09:45:23.743Z,85.83
2019-03-12T09:48:43.943Z,85.70
2019-03-12T09:52:00.298Z,85.83
2019-03-12T09:55:20.883Z,86.40
2019-03-12T09:58:47.662Z,85.74
2019-03-12T10:02:16.897Z,85.41
2019-03-12T10:05:44.211Z,86.02
2019-03-12T10:09:06.524Z,85.74
2019-03-12T10:12:29.787Z,85.38
2019-03-12T10:15:58.970Z,85.67
2019-03-12T10:19:28.489Z,85.17
2019-03-12T10:23:04.645Z,85.35
2019-03-12T10:26:24.591Z,85.52
2019-03-12T10:29:44.788Z,85.79
2019-03-12T10:33:08.099Z,85.23
2019-03-12T10:36:19.362Z,86.05
2019-03-12T10:40:18.885Z,85.86
2019-03-12T10:43:35.659Z,86.01
2019-03-12T10:46:44.387Z,86.63
2019-03-12T10:49:48.665Z,87.60
2019-03-12T10:52:52.949Z,87.77
2019-03-12T10:55:57.331Z,88.19
2019-03-12T10:59:01.660Z,87.82
2019-03-12T11:02:06.135Z,88.50
2019-03-12T11:05:13.651Z,88.96
2019-03-12T11:08:18.158Z,88.83
2019-03-12T11:11:22.736Z,88.85
2019-03-12T11:14:27.126Z,89.06
2019-03-12T11:17:31.705Z,89.58
2019-03-12T11:20:37.786Z,90.20
2019-03-12T11:23:42.205Z,88.89
2019-03-12T11:26:46.823Z,89.79
2019-03-12T11:29:51.474Z,89.04
2019-03-12T11:32:55.827Z,89.83
2019-03-12T11:36:01.941Z,90.38
2019-03-12T11:39:10.055Z,90.30
2019-03-12T11:42:15.157Z,90.89
2019-03-12T11:45:25.751Z,90.75
2019-03-12T11:48:26.005Z,90.83
2019-03-12T11:51:30.341Z,91.32
2019-03-12T11:54:34.599Z,91.38
2019-03-12T11:57:38.865Z,91.13
2019-03-12T12:00:48.637Z,91.07
2019-03-12T12:03:52.929Z,90.59
2019-03-12T12:06:57.470Z,90.98
2019-03-12T12:10:02.385Z,91.63
2019-03-12T12:13:07.130Z,91.50
2019-03-12T12:16:14.796Z,91.03
2019-03-12T12:19:28.338Z,91.12
2019-03-12T12:22:32.908Z,90.50
2019-03-12T12:25:37.267Z,91.24
2019-03-12T12:28:41.709Z,90.83
2019-03-12T12:31:47.499Z,91.08
2019-03-12T12:34:52.217Z,90.81
2019-03-12T12:37:56.803Z,90.35
2019-03-12T12:41:01.203Z,91.14
2019-03-12T12:44:07.957Z,91.14
2019-03-12T12:47:12.041Z,90.32
2019-03-12T12:50:17.113Z,89.50
2019-03-12T12:53:21.733Z,89.52
2019-03-12T12:56:26.159Z,89.51
2019-03-12T12:59:30.946Z,90.20
2019-03-12T13:02:35.653Z,90.54
2019-03-12T13:05:40.099Z,90.32
2019-03-12T13:08:44.576Z,90.74
2019-03-12T13:11:49.137Z,90.91
2019-03-12T13:14:54.446Z,90.79
2019-03-12T13:17:59.403Z,91.44
2019-03-12T13:21:03.944Z,91.23
2019-03-12T13:24:08.296Z,91.75
2019-03-12T13:27:12.694Z,92.02
2019-03-12T13:30:18.659Z,92.07
2019-03-12T13:33:23.311Z,92.02
2019-03-12T13:36:27.975Z,92.55
2019-03-12T13:39:34.639Z,92.02
2019-03-12T13:42:39.420Z,92.48
2019-03-12T13:45:47.356Z,92.55
2019-03-12T13:48:51.923Z,93.00
2019-03-12T13:51:56.412Z,92.90
2019-03-12T13:55:02.543Z,92.53
2019-03-12T13:58:07.411Z,92.49
2019-03-12T14:01:12.044Z,92.64
2019-03-12T14:04:16.430Z,92.33
2019-03-12T14:07:22.539Z,92.56
2019-03-12T14:10:26.879Z,92.65
2019-03-12T14:13:31.369Z,93.04
2019-03-12T14:16:35.775Z,93.35
2019-03-12T14:19:41.796Z,93.07
2019-03-12T14:22:46.302Z,92.99
2019-03-12T14:25:53.699Z,93.27
2019-03-12T14:28:58.052Z,93.01
2019-03-12T14:32:02.522Z,93.16
2019-03-12T14:35:07.550Z,92.73
2019-03-12T14:38:12.520Z,92.78
2019-03-12T14:41:16.899Z,92.72
2019-03-12T14:44:21.673Z,92.42
2019-03-12T14:47:29.371Z,92.36
2019-03-12T14:50:33.720Z,92.02
2019-03-12T14:53:38.318Z,92.26
2019-03-12T14:56:42.745Z,92.04
2019-03-12T14:59:47.157Z,91.72
2019-03-12T15:02:52.049Z,91.52
2019-03-12T15:05:56.474Z,91.75
2019-03-12T15:09:00.806Z,91.57
2019-03-12T15:12:06.857Z,91.42
2019-03-12T15:15:11.739Z,91.41
2019-03-12T15:18:16.150Z,90.74
2019-03-12T15:21:20.546Z,90.93
2019-03-12T15:24:25.227Z,90.23
2019-03-12T15:27:29.727Z,90.50
2019-03-12T15:30:34.257Z,90.59
2019-03-12T15:33:38.634Z,91.38
2019-03-12T15:36:45.750Z,92.22
2019-03-12T15:39:50.117Z,92.10
2019-03-12T15:42:54.589Z,92.49
2019-03-12T15:45:59.145Z,92.79
2019-03-12T15:49:03.558Z,93.36
2019-03-12T15:52:08.248Z,93.35
2019-03-12T15:55:13.477Z,93.65
2019-03-12T15:58:17.847Z,93.85
2019-03-12T16:01:22.700Z,94.28
2019-03-12T16:04:27.172Z,94.28
2019-03-12T16:07:31.737Z,94.13
2019-03-12T16:10:36.426Z,93.52
2019-03-12T16:13:43.089Z,93.51
2019-03-12T16:16:48.519Z,93.10
2019-03-12T16:19:52.973Z,93.34
2019-03-12T16:23:01.205Z,92.75
2019-03-12T16:26:05.619Z,92.26
2019-03-12T16:29:10.385Z,91.90
2019-03-12T16:32:15.117Z,91.85
2019-03-12T16:35:19.519Z,90.83
2019-03-12T16:38:27.156Z,90.69
2019-03-12T16:41:31.464Z,90.05
2019-03-12T16:44:42.080Z,89.54
2019-03-12T16:48:17.314Z,89.61
2019-03-12T16:51:21.940Z,89.45
2019-03-12T16:54:26.525Z,88.82
2019-03-12T16:57:35.502Z,89.16
2019-03-12T17:00:43.526Z,88.78
2019-03-12T17:03:48.056Z,88.08
2019-03-12T17:06:52.513Z,88.64
2019-03-12T17:09:57.009Z,88.87
2019-03-12T17:13:02.696Z,89.04
2019-03-12T17:16:07.329Z,89.03
2019-03-12T17:19:11.833Z,89.46
2019-03-12T17:22:18.114Z,89.41
2019-03-12T17:25:22.531Z,89.10
2019-03-12T17:28:27.021Z,88.93
2019-03-12T17:31:31.518Z,89.12
2019-03-12T17:34:37.390Z,89.02
2019-03-12T17:37:41.912Z,89.20
2019-03-12T17:40:46.465Z,89.24
2019-03-12T17:43:50.986Z,89.01
2019-03-12T17:46:55.338Z,89.30
2019-03-12T17:49:59.962Z,88.68
2019-03-12T17:53:16.883Z,89.03
2019-03-12T17:56:21.352Z,88.74
2019-03-12T17:59:25.940Z,89.11
2019-03-12T18:02:42.130Z,89.11
2019-03-12T18:05:36.984Z,89.23
2019-03-12T18:08:41.401Z,89.31
2019-03-12T18:11:46.057Z,88.92
2019-03-12T18:14:56.597Z,88.69
2019-03-12T18:18:02.766Z,89.28
2019-03-12T18:21:09.017Z,89.49
2019-03-12T18:24:13.581Z,89.56
2019-03-12T18:27:17.982Z,89.48
2019-03-12T18:30:26.133Z,89.35
2019-03-12T18:33:33.312Z,89.58
2019-03-12T18:36:37.854Z,90.04
2019-03-12T18:39:42.298Z,90.42
2019-03-12T18:42:47.030Z,89.81
2019-03-12T18:45:51.434Z,90.01
2019-03-12T18:48:57.845Z,90.32
2019-03-12T18:52:02.449Z,90.03
2019-03-12T18:55:07.954Z,89.66
2019-03-12T18:58:13.223Z,89.52
2019-03-12T19:01:32.199Z,89.05
2019-03-12T19:04:36.771Z,89.25
2019-03-12T19:07:42.155Z,88.59
2019-03-12T19:10:46.545Z,88.65
2019-03-12T19:13:51.130Z,87.98
2019-03-12T19:16:55.804Z,88.06
2019-03-12T19:20:04.854Z,87.40
2019-03-12T19:23:12.224Z,87.63
2019-03-12T19:26:16.972Z,88.08
2019-03-12T19:29:21.893Z,87.93
2019-03-12T19:32:42.691Z,87.54
2019-03-12T19:35:47.788Z,87.65
2019-03-12T19:38:52.461Z,88.57
2019-03-12T19:41:57.081Z,87.80
2019-03-12T19:45:04.956Z,88.48
2019-03-12T19:48:09.875Z,87.79
2019-03-12T19:51:14.989Z,88.37
2019-03-12T19:54:20.189Z,88.35
2019-03-12T19:57:27.028Z,87.75
2019-03-12T20:00:32.218Z,89.07
2019-03-12T20:03:37.206Z,88.87
2019-03-12T20:06:45.133Z,88.94
2019-03-12T20:10:10.991Z,88.85
2019-03-12T20:14:01.533Z,89.17
2019-03-12T20:17:45.858Z,89.30
2019-03-12T20:21:26.230Z,89.24
2019-03-12T20:25:14.393Z,89.35
2019-03-12T20:28:53.589Z,89.97
2019-03-12T20:32:32.638Z,90.07
2019-03-12T20:36:29.477Z,89.86
2019-03-12T20:40:12.201Z,89.86
2019-03-12T20:43:56.906Z,90.43
2019-03-12T20:47:47.704Z,90.21
2019-03-12T20:51:29.162Z,89.80
2019-03-12T20:55:29.348Z,90.51
2019-03-12T20:59:13.731Z,90.28
2019-03-12T21:03:12.722Z,90.64
2019-03-12T21:07:13.919Z,90.29
2019-03-12T21:11:07.414Z,90.36
2019-03-12T21:14:41.542Z,90.75
2019-03-12T21:18:22.610Z,91.21
2019-03-12T21:22:25.816Z,91.50
2019-03-12T21:26:05.182Z,91.69
2019-03-12T21:29:48.801Z,91.29
2019-03-12T21:32:53.631Z,91.48
2019-03-12T21:35:58.405Z,92.17
2019-03-12T21:39:03.554Z,91.90
2019-03-12T21:42:08.873Z,91.27
2019-03-12T21:45:14.219Z,90.58
2019-03-12T21:48:18.758Z,90.11
2019-03-12T21:51:26.031Z,90.45
2019-03-12T21:54:31.002Z,90.53
2019-03-12T21:57:35.447Z,90.35
2019-03-12T22:00:39.965Z,90.22
2019-03-12T22:03:45.636Z,90.31
2019-03-12T22:06:50.149Z,90.27
2019-03-12T22:09:54.598Z,90.32
2019-03-12T22:13:05.342Z,90.32
2019-03-12T22:16:05.555Z,90.73
2019-03-12T22:19:09.912Z,90.72
2019-03-12T22:22:23.400Z,90.80
2019-03-12T22:25:27.886Z,90.83
2019-03-12T22:28:32.227Z,90.49
2019-03-12T22:31:36.589Z,90.60
2019-03-12T22:34:41.115Z,90.83
2019-03-12T22:37:45.423Z,91.20
2019-03-12T22:40:51.446Z,91.40
2019-03-12T22:43:55.816Z,91.77
2019-03-12T22:47:00.176Z,91.78
2019-03-12T22:50:04.573Z,91.90
2019-03-12T22:53:09.691Z,91.56
2019-03-12T22:56:14.113Z,92.15
2019-03-12T22:59:18.949Z,92.40
2019-03-12T23:02:23.377Z,92.59
2019-03-12T23:05:29.797Z,92.67
2019-03-12T23:08:41.441Z,92.50
2019-03-12T23:11:59.108Z,92.56
2019-03-12T23:15:04.222Z,92.70
2019-03-12T23:18:11.096Z,92.36
2019-03-12T23:21:17.700Z,92.44
2019-03-12T23:24:24.387Z,92.51
2019-03-12T23:27:30.796Z,92.52
2019-03-12T23:30:53.431Z,92.56
2019-03-12T23:34:01.520Z,92.61
2019-03-12T23:37:08.368Z,92.73
2019-03-12T23:40:16.018Z,93.09
2019-03-12T23:43:22.764Z,92.88
2019-03-12T23:46:29.191Z,93.37
2019-03-12T23:49:36.390Z,93.56
2019-03-12T23:52:43.368Z,93.27
2019-03-12T23:55:50.295Z,93.76
2019-03-12T23:58:56.598Z,94.49
